Texas General Land Office
 Texas General Land Office
 George P. Bush, Commissioner

 Oil Spill Prevention
 & Response

Texas Automated Buoy System
Real Time Ocean Observations
Supporting Oil Spill Prevention and
Response since 1995
Geochemical and Environmental Research Group

TABS Buoy F -- Texas Automated Buoy System

TABS Buoy F Conditions at 12/19/2018 00:00 UTC (12/19/2018 00:00 UTC)
28° 50.5500'N   94° 14.4960'W
AA3900 DCS - sensor depth 2m
Water Depth: 79 feet (24 meters)
Speed: 33.45 cm/s (0.65 kts) Direction: 10 °T (N) Water Temp: 16°C (62 °F)
System Voltage: 12.5 V Signal Strength: -2.1 dB Ping Count: 125
  


IMPORTANT: Notice to Mariners


Today's Velocity Data (download)

   Date   |  Time  |   East |   North|   Speed|  Dir | WaterT |
          |  (UTC) |  (cm/s)|  (cm/s)|  (cm/s)| (°T) |  (°C)  |
==========+========+========+========+========+======+========+
12/17/2018 23:30:00    -2.05    26.40    26.48  355.6   16.6
12/18/2018 00:00:00     0.26    26.41    26.41    0.6   16.6
12/18/2018 00:30:00     0.30    27.15    27.15    0.6   16.6
12/18/2018 01:00:00     0.88    28.06    28.07    1.8   16.6
12/18/2018 01:30:00     3.50    26.73    26.96    7.5   16.6
12/18/2018 02:00:00     8.73    25.90    27.33   18.6   16.6
12/18/2018 02:30:00     8.16    24.53    25.85   18.4   16.6
12/18/2018 03:00:00    11.48    22.57    25.32   27.0   16.6
12/18/2018 03:30:00     8.48    24.02    25.47   19.4   16.7
12/18/2018 04:00:00     9.07    21.17    23.03   23.2   16.7
12/18/2018 04:30:00    13.04    18.94    22.99   34.5   16.7
12/18/2018 05:00:00    13.16    14.27    19.41   42.7   16.7
12/18/2018 05:30:00     4.33   -14.56    15.19  163.4   16.8
12/18/2018 06:00:00    -0.31   -15.31    15.31  181.2   16.6
12/18/2018 06:30:00     0.05   -14.60    14.60  179.8   16.6
12/18/2018 07:00:00    -1.59   -11.67    11.78  187.8   16.6
12/18/2018 07:30:00    -2.74   -11.89    12.20  193.0   16.6
12/18/2018 08:00:00    -1.27    -9.27     9.36  187.8   16.6
12/18/2018 08:30:00    -2.27    -7.84     8.16  196.1   16.6
12/18/2018 09:00:00    -0.78    -6.16     6.21  187.2   16.6
12/18/2018 09:30:00     1.02    -6.15     6.23  170.6   16.6
12/18/2018 10:00:00     2.91    -1.21     3.15  112.6   16.6
12/18/2018 10:30:00     2.34    -3.53     4.24  146.5   16.6
12/18/2018 11:00:00     1.70    -2.80     3.28  148.7   16.6
12/18/2018 11:30:00     2.47    -1.37     2.82  119.0   16.6
12/18/2018 12:00:00     3.74    -0.21     3.75   93.2   16.6
12/18/2018 12:30:00     3.47    -1.52     3.79  113.7   16.6
12/18/2018 13:00:00     5.32    -2.20     5.76  112.5   16.5
12/18/2018 13:30:00     5.24    -1.31     5.40  104.0   16.5
12/18/2018 14:00:00     4.51    -1.82     4.86  112.0   16.5
12/18/2018 14:30:00     3.36    -5.27     6.25  147.5   16.5
12/18/2018 15:00:00     3.55    -3.64     5.08  135.7   16.5
12/18/2018 15:30:00     3.04    -5.38     6.18  150.5   16.5
12/18/2018 16:00:00     2.49    -2.68     3.66  137.1   16.5
12/18/2018 16:30:00     1.51    -2.59     3.00  149.8   16.5
12/18/2018 17:00:00     1.53     1.34     2.03   48.8   16.6
12/18/2018 17:30:00     2.47     0.95     2.65   69.0   16.6
12/18/2018 18:00:00     1.94     0.69     2.06   70.4   16.7
12/18/2018 18:30:00     1.13    -1.06     1.55  133.2   16.7
12/18/2018 19:00:00    -1.08     0.32     1.13  286.5   16.7
12/18/2018 19:30:00    -0.84     1.23     1.49  325.7   16.7
12/18/2018 20:00:00     0.52    -0.08     0.53   98.7   16.7
12/18/2018 20:30:00     7.79    23.74    24.99   18.2   16.7
12/18/2018 21:00:00     7.08    29.23    30.08   13.6   16.6
12/18/2018 21:30:00    10.60    27.24    29.23   21.3   16.6
12/18/2018 22:00:00     9.13    31.42    32.72   16.2   16.5
12/18/2018 22:30:00     7.84    29.86    30.87   14.7   16.5
12/18/2018 23:00:00    10.54    33.04    34.68   17.7   16.5
12/18/2018 23:30:00    10.54    34.07    35.66   17.2   16.4
12/19/2018 00:00:00     5.84    32.94    33.45   10.1   16.4



       
 

Today's Temperature - Salinity Data     (Download)


   Date   |  Time  |   Temp |   Cond |Salinity| Density|SoundVel|
          |  (UTC) |   (°C) | (ms/cm)|        | kg/m^3 |  (m/s) |
==========+========+========+========+========+========+========+
12/17/2018 23:30:00    16.64     4.03    31.30     0.00     0.00
12/18/2018 00:00:00    16.62     4.03    31.33     0.00     0.00
12/18/2018 00:30:00    16.62     4.04    31.41     0.00     0.00
12/18/2018 01:00:00    16.63     4.05    31.47     0.00     0.00
12/18/2018 01:30:00    16.62     4.06    31.56     0.00     0.00
12/18/2018 02:00:00    16.66     4.07    31.64     0.00     0.00
12/18/2018 02:30:00    16.67     4.08    31.69     0.00     0.00
12/18/2018 03:00:00    16.69     4.08    31.74     0.00     0.00
12/18/2018 03:30:00    16.68     4.09    31.82     0.00     0.00
12/18/2018 04:00:00    16.67     4.10    31.87     0.00     0.00
12/18/2018 04:30:00    16.71     4.11    31.97     0.00     0.00
12/18/2018 05:00:00    16.75     4.13    32.07     0.00     0.00
12/18/2018 05:30:00    16.75     4.13    32.09     0.00     0.00
12/18/2018 06:00:00    16.64     4.09    31.80     0.00     0.00
12/18/2018 06:30:00    16.66     4.09    31.78     0.00     0.00
12/18/2018 07:00:00    16.60     4.08    31.73     0.00     0.00
12/18/2018 07:30:00    16.58     4.07    31.70     0.00     0.00
12/18/2018 08:00:00    16.57     4.07    31.68     0.00     0.00
12/18/2018 08:30:00    16.61     4.07    31.69     0.00     0.00
12/18/2018 09:00:00    16.63     4.08    31.70     0.00     0.00
12/18/2018 09:30:00    16.59     4.07    31.69     0.00     0.00
12/18/2018 10:00:00    16.59     4.07    31.69     0.00     0.00
12/18/2018 10:30:00    16.61     4.07    31.69     0.00     0.00
12/18/2018 11:00:00    16.58     4.07    31.68     0.00     0.00
12/18/2018 11:30:00    16.57     4.07    31.67     0.00     0.00
12/18/2018 12:00:00    16.57     4.07    31.67     0.00     0.00
12/18/2018 12:30:00    16.55     4.07    31.68     0.00     0.00
12/18/2018 13:00:00    16.55     4.07    31.68     0.00     0.00
12/18/2018 13:30:00    16.55     4.07    31.69     0.00     0.00
12/18/2018 14:00:00    16.53     4.07    31.70     0.00     0.00
12/18/2018 14:30:00    16.47     4.05    31.62     0.00     0.00
12/18/2018 15:00:00    16.49     4.05    31.61     0.00     0.00
12/18/2018 15:30:00    16.51     4.05    31.59     0.00     0.00
12/18/2018 16:00:00    16.53     4.05    31.59     0.00     0.00
12/18/2018 16:30:00    16.54     4.05    31.59     0.00     0.00
12/18/2018 17:00:00    16.60     4.06    31.59     0.00     0.00
12/18/2018 17:30:00    16.64     4.06    31.59     0.00     0.00
12/18/2018 18:00:00    16.70     4.07    31.60     0.00     0.00
12/18/2018 18:30:00    16.65     4.06    31.59     0.00     0.00
12/18/2018 19:00:00    16.72     4.07    31.60     0.00     0.00
12/18/2018 19:30:00    16.71     4.07    31.59     0.00     0.00
12/18/2018 20:00:00    16.72     4.07    31.60     0.00     0.00
12/18/2018 20:30:00    16.68     4.03    31.28     0.00     0.00
12/18/2018 21:00:00    16.59     3.99    31.00     0.00     0.00
12/18/2018 21:30:00    16.57     3.98    30.95     0.00     0.00
12/18/2018 22:00:00    16.51     3.96    30.80     0.00     0.00
12/18/2018 22:30:00    16.47     3.95    30.77     0.00     0.00
12/18/2018 23:00:00    16.46     3.95    30.78     0.00     0.00
12/18/2018 23:30:00    16.45     3.95    30.77     0.00     0.00
12/19/2018 00:00:00    16.45     3.96    30.84     0.00     0.00